Time;durP1;ratioP1;P1;durP2;ratioP2;P2;SDS_P1;SDS_P2;PMS_P1;PMS_P2;Temp;Humidity;BMP_temperature;BMP_pressure;BME280_temperature;BME280_humidity;BME280_pressure;Samples;Min_cycle;Max_cycle;Signal;HPM_P1;HPM_P2
2022/04/30 00:00:30;;;;;;;16.30;7.95;;;7.40;99.90;;;;;;5135939;27;20047;-68
2022/04/30 00:02:57;;;;;;;10.52;6.93;;;7.30;99.90;;;;;;5135556;27;20562;-68
2022/04/30 00:05:24;;;;;;;13.18;7.05;;;7.30;99.90;;;;;;5117331;27;20054;-68
2022/04/30 00:07:50;;;;;;;11.93;7.55;;;7.30;99.90;;;;;;5135353;27;20437;-68
2022/04/30 00:10:17;;;;;;;13.07;7.63;;;7.30;99.90;;;;;;5134577;27;20100;-68
2022/04/30 00:12:42;;;;;;;14.68;7.20;;;7.30;99.90;;;;;;5135148;27;20152;-68
2022/04/30 00:15:09;;;;;;;9.57;6.77;;;7.30;99.90;;;;;;5135336;27;20134;-68
2022/04/30 00:17:35;;;;;;;13.23;7.38;;;7.20;99.90;;;;;;5135342;27;20126;-68
2022/04/30 00:20:03;;;;;;;10.35;6.45;;;7.20;99.90;;;;;;5133989;27;20054;-69
2022/04/30 00:22:29;;;;;;;14.15;7.57;;;7.20;99.90;;;;;;5134542;27;20392;-69
2022/04/30 00:24:55;;;;;;;13.33;7.20;;;7.20;99.90;;;;;;5134985;27;20088;-69
2022/04/30 00:27:21;;;;;;;13.80;7.10;;;7.20;99.90;;;;;;5135126;27;20300;-69
2022/04/30 00:29:46;;;;;;;14.60;7.33;;;7.20;99.90;;;;;;5135066;27;20130;-69
2022/04/30 00:32:12;;;;;;;14.43;7.30;;;7.10;99.90;;;;;;5135177;27;20047;-69
2022/04/30 00:34:38;;;;;;;12.40;7.25;;;7.10;99.90;;;;;;5135090;27;20494;-68
2022/04/30 00:37:04;;;;;;;10.30;6.80;;;7.10;99.90;;;;;;5134627;27;20133;-68
2022/04/30 00:39:31;;;;;;;9.57;6.20;;;7.00;99.90;;;;;;5133937;27;20055;-68
2022/04/30 00:41:58;;;;;;;9.55;6.43;;;7.10;99.90;;;;;;5134747;27;20051;-68
2022/04/30 00:44:24;;;;;;;10.98;6.28;;;7.10;99.90;;;;;;5134040;27;20047;-68
2022/04/30 00:46:50;;;;;;;12.23;6.00;;;7.00;99.90;;;;;;5134522;27;20080;-69
2022/04/30 00:49:16;;;;;;;8.27;5.77;;;7.00;99.90;;;;;;5134591;27;20151;-68
2022/04/30 00:51:45;;;;;;;12.90;6.30;;;7.00;99.90;;;;;;5134257;27;20043;-74
2022/04/30 00:54:13;;;;;;;9.45;6.05;;;7.00;99.90;;;;;;5116545;27;20047;-68
2022/04/30 00:56:55;;;;;;;11.55;6.45;;;7.00;99.90;;;;;;5133717;27;20047;-68
2022/04/30 00:59:23;;;;;;;13.20;6.80;;;7.00;99.90;;;;;;5134978;27;20507;-68
2022/04/30 01:01:49;;;;;;;15.30;6.93;;;7.00;99.90;;;;;;5134329;27;20100;-68
2022/04/30 01:04:16;;;;;;;13.27;6.47;;;7.00;99.90;;;;;;5134667;27;20055;-68
2022/04/30 01:06:56;;;;;;;13.77;7.50;;;7.00;99.90;;;;;;5134577;27;20316;-68
2022/04/30 01:09:24;;;;;;;18.95;9.15;;;7.00;99.90;;;;;;5134740;27;20036;-68
2022/04/30 01:12:00;;;;;;;19.20;7.65;;;7.00;99.90;;;;;;5134135;27;20043;-69
2022/04/30 01:14:29;;;;;;;20.83;8.70;;;7.00;99.90;;;;;;5134644;27;20051;-68
2022/04/30 01:16:59;;;;;;;18.98;8.20;;;7.00;99.90;;;;;;5134119;27;20126;-69
2022/04/30 01:19:27;;;;;;;16.75;8.45;;;6.90;99.90;;;;;;5134522;27;20070;-68
2022/04/30 01:21:56;;;;;;;15.32;8.75;;;6.90;99.90;;;;;;5133957;27;20082;-69
2022/04/30 01:24:23;;;;;;;14.82;7.32;;;6.90;99.90;;;;;;5133034;27;20093;-68
2022/04/30 01:26:53;;;;;;;13.82;7.50;;;6.90;99.90;;;;;;5133651;27;20103;-69
2022/04/30 01:29:21;;;;;;;14.48;6.60;;;6.90;99.90;;;;;;5134276;27;20089;-68
2022/04/30 01:37:25;;;;;;;11.73;7.03;;;7.00;99.90;;;;;;5134168;27;20054;-69
2022/04/30 01:40:00;;;;;;;11.55;6.82;;;7.00;99.90;;;;;;5133804;27;20112;-68
2022/04/30 01:42:37;;;;;;;;;;;7.00;99.90;;;;;;5134439;27;20051;-68
2022/04/30 01:45:05;;;;;;;12.00;7.30;;;6.90;99.90;;;;;;5133693;27;19919;-68
2022/04/30 01:47:33;;;;;;;10.02;6.95;;;7.00;99.90;;;;;;5132448;27;20126;-68
2022/04/30 01:49:59;;;;;;;12.95;6.93;;;7.00;99.90;;;;;;5133288;27;20501;-68
2022/04/30 01:52:25;;;;;;;11.25;6.30;;;7.00;99.90;;;;;;5132866;27;20130;-68
2022/04/30 01:54:51;;;;;;;10.73;6.27;;;7.00;99.90;;;;;;5133389;27;20130;-69
2022/04/30 01:57:23;;;;;;;13.37;6.23;;;7.00;99.90;;;;;;5132570;28;20043;-68
2022/04/30 01:59:52;;;;;;;14.40;6.97;;;7.00;99.90;;;;;;5132573;28;20051;-73
2022/04/30 02:02:22;;;;;;;11.70;6.38;;;7.10;99.90;;;;;;5133796;28;20054;-68
2022/04/30 02:04:48;;;;;;;12.60;6.78;;;7.10;99.90;;;;;;5133856;28;20468;-68
2022/04/30 02:07:14;;;;;;;11.00;6.25;;;7.10;99.90;;;;;;5133955;28;20126;-68
2022/04/30 02:09:40;;;;;;;13.00;7.90;;;7.10;99.90;;;;;;5132793;28;20047;-68
2022/04/30 02:12:07;;;;;;;9.10;5.20;;;7.10;99.90;;;;;;5133265;28;20043;-68
2022/04/30 02:14:34;;;;;;;9.98;6.10;;;7.10;99.90;;;;;;5133707;28;20122;-68
2022/04/30 02:17:02;;;;;;;10.43;5.65;;;7.10;99.90;;;;;;5133351;28;20051;-68
2022/04/30 02:20:18;;;;;;;10.30;6.00;;;7.10;99.90;;;;;;5133501;28;20152;-68
2022/04/30 02:22:16;;;;;;;10.05;5.57;;;7.10;99.90;;;;;;5132144;28;20047;-68
2022/04/30 02:24:42;;;;;;;12.80;6.22;;;7.10;99.90;;;;;;5133558;28;20051;-68
2022/04/30 02:27:07;;;;;;;9.13;5.20;;;7.20;99.90;;;;;;5131932;28;20066;-68
2022/04/30 02:29:33;;;;;;;10.77;6.10;;;7.20;99.90;;;;;;5133519;28;20066;-68
2022/04/30 02:31:59;;;;;;;9.07;5.80;;;7.20;99.90;;;;;;5133216;28;20475;-68
2022/04/30 02:34:24;;;;;;;12.03;5.40;;;7.20;99.90;;;;;;5133795;28;20065;-68
2022/04/30 02:36:50;;;;;;;10.23;5.40;;;7.30;99.90;;;;;;5133786;28;20043;-68
2022/04/30 02:39:16;;;;;;;9.80;5.73;;;7.30;99.90;;;;;;5133083;27;20047;-68
2022/04/30 02:41:41;;;;;;;14.27;5.97;;;7.30;99.90;;;;;;5133319;28;20104;-68
2022/04/30 02:44:07;;;;;;;9.90;6.03;;;7.30;99.90;;;;;;5132209;28;20080;-68
2022/04/30 02:46:33;;;;;;;11.50;5.60;;;7.30;99.90;;;;;;5133420;28;20043;-68
2022/04/30 02:48:59;;;;;;;9.40;5.43;;;7.20;99.90;;;;;;5131981;28;20134;-68
2022/04/30 02:51:24;;;;;;;10.63;5.47;;;7.20;99.90;;;;;;5131668;28;20059;-68
2022/04/30 02:53:53;;;;;;;12.13;5.60;;;7.30;99.90;;;;;;5133328;28;20296;-68
2022/04/30 02:56:20;;;;;;;10.70;6.05;;;7.20;99.90;;;;;;5133420;28;20444;-68
2022/04/30 03:01:29;;;;;;;9.40;5.55;;;7.10;99.90;;;;;;5137022;27;20050;-68
2022/04/30 03:03:55;;;;;;;8.43;5.47;;;7.10;99.90;;;;;;5136723;27;20126;-73
2022/04/30 03:06:22;;;;;;;11.10;5.83;;;7.10;99.90;;;;;;5136649;27;20051;-68
2022/04/30 03:08:47;;;;;;;9.20;5.78;;;7.10;99.90;;;;;;5135941;27;20456;-68
2022/04/30 03:11:13;;;;;;;11.20;5.73;;;7.10;99.90;;;;;;5136510;27;20083;-68
2022/04/30 03:13:40;;;;;;;9.83;5.93;;;7.10;99.90;;;;;;5135636;27;20054;-68
2022/04/30 03:21:42;;;;;;;10.07;5.80;;;7.10;99.90;;;;;;5136631;27;19926;-68
2022/04/30 03:24:08;;;;;;;10.02;5.22;;;7.10;99.90;;;;;;5136460;27;20140;-68
2022/04/30 03:26:34;;;;;;;12.82;6.07;;;7.20;99.90;;;;;;5136574;27;20503;-68
2022/04/30 03:29:00;;;;;;;10.73;5.80;;;7.20;99.90;;;;;;5136469;27;20086;-69
2022/04/30 03:31:28;;;;;;;10.88;5.63;;;7.20;99.90;;;;;;5136660;27;20082;-68
2022/04/30 03:33:54;;;;;;;9.02;6.03;;;7.20;99.90;;;;;;5136360;27;20051;-68
2022/04/30 03:36:19;;;;;;;20.37;6.07;;;7.30;99.90;;;;;;5134950;27;20050;-68
2022/04/30 03:38:45;;;;;;;10.67;5.23;;;7.30;99.90;;;;;;5136308;27;20043;-68
2022/04/30 03:41:11;;;;;;;9.87;5.50;;;7.30;99.90;;;;;;5135963;27;20054;-69
2022/04/30 03:43:36;;;;;;;7.90;5.17;;;7.30;99.90;;;;;;5135983;27;20043;-69
2022/04/30 03:46:04;;;;;;;7.70;5.27;;;7.30;99.90;;;;;;5135973;27;20126;-69
2022/04/30 03:48:29;;;;;;;8.68;5.25;;;7.30;99.90;;;;;;5134831;27;20479;-69
2022/04/30 03:50:57;;;;;;;10.07;6.20;;;7.30;99.90;;;;;;5135715;27;20092;-69
2022/04/30 03:53:23;;;;;;;7.25;5.28;;;7.30;99.90;;;;;;5135676;27;20051;-69
2022/04/30 03:55:49;;;;;;;10.40;6.15;;;7.30;99.90;;;;;;5135048;27;20383;-69
2022/04/30 03:58:14;;;;;;;9.53;5.20;;;7.30;99.90;;;;;;5135608;27;20043;-69
2022/04/30 04:00:40;;;;;;;11.27;5.43;;;7.30;99.90;;;;;;5135849;27;20069;-69
2022/04/30 04:03:06;;;;;;;8.67;5.20;;;7.40;99.90;;;;;;5135622;27;20502;-69
2022/04/30 04:05:33;;;;;;;10.33;5.20;;;7.40;99.90;;;;;;5136087;27;20047;-69
2022/04/30 04:07:59;;;;;;;8.40;5.38;;;7.40;99.90;;;;;;5135703;27;20126;-69
2022/04/30 04:10:25;;;;;;;9.68;5.22;;;7.40;99.90;;;;;;5134970;27;20134;-69
2022/04/30 04:12:51;;;;;;;10.82;5.20;;;7.40;99.90;;;;;;5134677;27;20055;-69
2022/04/30 04:18:00;;;;;;;11.05;5.28;;;7.50;99.90;;;;;;5135704;27;20043;-69
2022/04/30 04:20:26;;;;;;;11.20;5.53;;;7.50;99.90;;;;;;5135148;27;20043;-69
2022/04/30 04:22:53;;;;;;;9.80;5.80;;;7.50;99.90;;;;;;5135614;27;20058;-69
2022/04/30 04:28:03;;;;;;;9.15;5.35;;;7.50;99.90;;;;;;5135237;27;20051;-69
2022/04/30 04:30:31;;;;;;;9.23;5.67;;;7.50;99.90;;;;;;5135193;27;20043;-69
2022/04/30 04:32:58;;;;;;;12.35;5.40;;;7.50;99.90;;;;;;5135204;27;20088;-68
2022/04/30 04:35:24;;;;;;;11.75;5.30;;;7.60;99.90;;;;;;5134950;27;20116;-69
2022/04/30 04:37:50;;;;;;;10.77;5.80;;;7.60;99.90;;;;;;5135161;27;20095;-69
2022/04/30 04:40:17;;;;;;;11.77;6.23;;;7.60;99.90;;;;;;5134839;27;20039;-69
2022/04/30 04:42:43;;;;;;;8.88;5.20;;;7.60;99.90;;;;;;5133924;27;20046;-69
2022/04/30 04:45:10;;;;;;;10.20;5.65;;;7.60;99.90;;;;;;5134786;27;20403;-69
2022/04/30 04:47:41;;;;;;;10.25;5.65;;;7.70;99.90;;;;;;5134151;27;20043;-69
2022/04/30 04:50:14;;;;;;;12.52;6.82;;;7.70;99.90;;;;;;5134428;27;20070;-70
2022/04/30 04:52:41;;;;;;;10.35;6.03;;;7.70;99.90;;;;;;5134843;27;20130;-69
2022/04/30 04:55:07;;;;;;;9.93;6.55;;;7.70;99.90;;;;;;5134506;27;20047;-73
2022/04/30 04:57:33;;;;;;;9.50;6.20;;;7.70;99.90;;;;;;5135052;27;20364;-69
2022/04/30 04:59:59;;;;;;;11.48;6.50;;;7.80;99.90;;;;;;5133693;27;20055;-69
2022/04/30 05:02:25;;;;;;;10.40;6.17;;;7.80;99.90;;;;;;5134324;27;20047;-69
2022/04/30 05:04:51;;;;;;;8.40;6.28;;;7.80;99.90;;;;;;5134617;27;20126;-69
2022/04/30 05:07:17;;;;;;;11.13;6.33;;;7.80;99.90;;;;;;5134162;27;20448;-69
2022/04/30 05:09:43;;;;;;;8.30;6.07;;;7.90;99.90;;;;;;5134481;27;20089;-69
2022/04/30 05:12:09;;;;;;;9.63;5.87;;;7.90;99.90;;;;;;5134228;27;20043;-73
2022/04/30 05:14:35;;;;;;;11.23;6.13;;;7.90;99.90;;;;;;5134070;27;20479;-69
2022/04/30 05:17:03;;;;;;;11.70;5.30;;;8.00;99.90;;;;;;5134361;27;20058;-69
2022/04/30 05:19:29;;;;;;;12.63;6.03;;;8.00;99.90;;;;;;5133996;27;20138;-69
2022/04/30 05:21:55;;;;;;;10.63;6.37;;;8.00;99.90;;;;;;5133550;27;20082;-69
2022/04/30 05:24:20;;;;;;;11.63;6.67;;;8.10;99.90;;;;;;5134202;27;20086;-69
2022/04/30 05:26:49;;;;;;;11.63;6.93;;;8.00;99.90;;;;;;5133551;27;20078;-69
2022/04/30 05:29:15;;;;;;;9.73;6.45;;;8.00;99.90;;;;;;5133919;27;20039;-68
2022/04/30 05:31:41;;;;;;;11.90;7.00;;;8.00;99.90;;;;;;5134164;27;20039;-68
2022/04/30 05:34:07;;;;;;;10.83;7.20;;;8.00;99.90;;;;;;5134369;27;20049;-68
2022/04/30 05:36:33;;;;;;;11.83;7.93;;;8.00;99.90;;;;;;5133784;27;20050;-68
2022/04/30 05:38:59;;;;;;;13.17;7.87;;;8.10;99.90;;;;;;5134112;27;20043;-68
2022/04/30 05:41:26;;;;;;;15.05;8.95;;;8.10;99.90;;;;;;5133757;27;20130;-68
2022/04/30 05:43:52;;;;;;;12.38;7.70;;;8.10;99.90;;;;;;5132890;27;20043;-68
2022/04/30 05:46:18;;;;;;;12.57;7.50;;;8.10;99.90;;;;;;5133690;27;20043;-68
2022/04/30 05:48:44;;;;;;;15.83;8.60;;;8.20;99.90;;;;;;5133879;27;20054;-68
2022/04/30 05:51:10;;;;;;;15.60;7.70;;;8.20;99.90;;;;;;5133910;27;20602;-68
2022/04/30 05:53:35;;;;;;;13.57;8.20;;;8.20;99.90;;;;;;5132399;27;20104;-68
2022/04/30 05:56:01;;;;;;;11.63;7.70;;;8.20;99.90;;;;;;5134055;28;20126;-68
2022/04/30 05:58:27;;;;;;;8.57;7.53;;;8.30;99.90;;;;;;5133551;28;20436;-68
2022/04/30 06:00:52;;;;;;;9.40;7.77;;;8.30;99.90;;;;;;5115904;28;20043;-68
2022/04/30 06:03:18;;;;;;;11.53;8.40;;;8.40;99.90;;;;;;5133434;28;20047;-68
2022/04/30 06:05:44;;;;;;;14.20;7.60;;;8.40;99.90;;;;;;5133882;28;20043;-68
2022/04/30 06:08:10;;;;;;;10.40;8.10;;;8.50;99.90;;;;;;5132437;28;20501;-68
2022/04/30 06:10:36;;;;;;;11.05;7.30;;;8.60;99.90;;;;;;5133438;27;20051;-68
2022/04/30 06:13:02;;;;;;;13.10;8.03;;;8.60;99.90;;;;;;5133685;28;20058;-68
2022/04/30 06:15:28;;;;;;;12.03;7.33;;;8.70;99.90;;;;;;5132152;28;20102;-68
2022/04/30 06:17:54;;;;;;;11.80;6.90;;;8.80;99.90;;;;;;5133583;28;20047;-68
2022/04/30 06:20:20;;;;;;;11.97;6.57;;;8.90;99.90;;;;;;5133383;27;20062;-69
2022/04/30 06:22:45;;;;;;;12.20;6.60;;;9.00;99.90;;;;;;5133571;28;20043;-68
2022/04/30 06:25:11;;;;;;;14.70;6.77;;;9.20;99.90;;;;;;5133650;27;20161;-68
2022/04/30 06:27:38;;;;;;;11.77;6.97;;;9.30;99.90;;;;;;5132073;28;20054;-68
2022/04/30 06:30:04;;;;;;;14.53;6.13;;;9.40;99.90;;;;;;5133389;28;20510;-68
2022/04/30 06:32:30;;;;;;;11.93;6.67;;;9.50;99.90;;;;;;5133259;28;20280;-68
2022/04/30 06:34:56;;;;;;;11.03;7.20;;;9.60;99.90;;;;;;5137113;27;20629;-68
2022/04/30 06:37:21;;;;;;;12.43;6.37;;;9.70;99.90;;;;;;5137211;27;20101;-68
2022/04/30 06:39:47;;;;;;;9.90;6.17;;;9.90;99.90;;;;;;5137805;27;20499;-68
2022/04/30 06:42:13;;;;;;;11.87;6.47;;;10.10;99.90;;;;;;5136289;27;20038;-68
2022/04/30 06:44:39;;;;;;;14.03;7.00;;;10.50;99.90;;;;;;5137072;27;20051;-68
2022/04/30 06:47:05;;;;;;;9.77;6.73;;;10.50;99.90;;;;;;5137392;27;20051;-68
2022/04/30 06:49:31;;;;;;;9.80;6.50;;;10.60;99.90;;;;;;5136888;27;20074;-69
2022/04/30 06:51:57;;;;;;;10.93;6.33;;;10.80;99.90;;;;;;5135894;27;20640;-68
2022/04/30 06:57:16;;;;;;;13.70;7.07;;;10.70;99.90;;;;;;5137206;27;20059;-69
2022/04/30 06:59:44;;;;;;;12.07;7.18;;;11.70;99.90;;;;;;5137107;27;20357;-69
2022/04/30 07:02:23;;;;;;;11.23;6.40;;;12.10;99.90;;;;;;5137053;27;20047;-69
2022/04/30 07:04:51;;;;;;;11.57;6.30;;;13.50;99.90;;;;;;5135912;27;20331;-69
2022/04/30 07:07:18;;;;;;;10.50;5.50;;;15.00;99.90;;;;;;5135402;27;20831;-69
2022/04/30 07:09:44;;;;;;;9.53;5.60;;;16.40;99.90;;;;;;5135469;27;20281;-70
2022/04/30 07:12:11;;;;;;;10.10;5.40;;;17.50;99.90;;;;;;5136915;27;20277;-69
2022/04/30 07:14:40;;;;;;;9.33;5.47;;;;;;;;;;5136573;27;20337;-70
2022/04/30 07:17:07;;;;;;;10.37;5.53;;;;;;;;;;5136637;27;20276;-69
2022/04/30 07:19:33;;;;;;;10.40;5.27;;;17.20;99.90;;;;;;5136240;27;20345;-69
2022/04/30 07:21:59;;;;;;;8.67;5.43;;;18.00;99.90;;;;;;5117988;27;20293;-70
2022/04/30 07:24:25;;;;;;;10.90;5.70;;;19.20;98.80;;;;;;5117970;27;20318;-70
2022/04/30 07:26:51;;;;;;;9.30;5.27;;;18.80;88.20;;;;;;5136564;27;20043;-69
2022/04/30 07:29:17;;;;;;;8.67;4.90;;;;;;;;;;5136449;27;20046;-69
2022/04/30 07:31:42;;;;;;;11.27;5.73;;;16.90;78.70;;;;;;5136198;27;20904;-70
2022/04/30 07:34:12;;;;;;;13.23;6.47;;;;;;;;;;5136779;27;20043;-69
2022/04/30 07:36:39;;;;;;;10.37;5.57;;;15.20;92.00;;;;;;5135042;27;20047;-70
2022/04/30 07:39:06;;;;;;;10.37;4.83;;;14.80;99.90;;;;;;5136352;27;20054;-70
2022/04/30 07:41:32;;;;;;;8.90;5.10;;;;;;;;;;5135932;27;20787;-71
2022/04/30 07:43:58;;;;;;;12.47;6.40;;;;;;;;;;5136226;27;20719;-70
2022/04/30 07:46:24;;;;;;;10.23;5.90;;;;;;;;;;5134386;27;20316;-70
2022/04/30 07:48:53;;;;;;;9.10;5.77;;;13.10;99.60;;;;;;5134503;27;20300;-70
2022/04/30 07:51:33;;;;;;;11.60;6.50;;;13.00;99.90;;;;;;5136033;27;20284;-70
2022/04/30 07:54:02;;;;;;;10.37;6.37;;;12.80;99.90;;;;;;5136361;27;20356;-70
2022/04/30 07:56:28;;;;;;;10.77;6.97;;;12.70;99.90;;;;;;5135743;27;20294;-70
2022/04/30 07:58:54;;;;;;;11.00;6.13;;;12.50;99.90;;;;;;5136368;27;20265;-70
2022/04/30 08:01:20;;;;;;;8.97;6.23;;;12.40;99.90;;;;;;5135977;27;20475;-70
2022/04/30 08:03:46;;;;;;;10.43;5.60;;;;;;;;;;5135651;27;20419;-70
2022/04/30 08:06:12;;;;;;;11.17;5.77;;;12.10;99.90;;;;;;5135887;27;20130;-70
2022/04/30 08:08:38;;;;;;;13.27;6.37;;;12.20;99.90;;;;;;5135379;27;20384;-70
2022/04/30 08:11:04;;;;;;;12.07;5.93;;;12.00;99.90;;;;;;5135425;27;20495;-70
2022/04/30 08:13:30;;;;;;;13.07;6.70;;;11.90;99.90;;;;;;5134222;27;20280;-71
2022/04/30 08:15:56;;;;;;;10.30;6.10;;;11.80;99.90;;;;;;5134187;27;20337;-70
2022/04/30 08:18:24;;;;;;;12.33;6.80;;;11.70;99.90;;;;;;5135751;27;20067;-70
2022/04/30 08:20:50;;;;;;;12.43;7.23;;;11.70;99.90;;;;;;5135263;27;20277;-70
2022/04/30 08:23:16;;;;;;;11.57;7.50;;;11.60;99.90;;;;;;5133992;27;20786;-70
2022/04/30 08:25:41;;;;;;;9.40;6.23;;;11.60;99.90;;;;;;5135206;27;20273;-70
2022/04/30 08:28:07;;;;;;;13.07;6.43;;;11.50;99.90;;;;;;5135631;27;20383;-70
2022/04/30 08:30:33;;;;;;;13.80;7.07;;;11.40;99.90;;;;;;5135451;27;20471;-70
2022/04/30 08:32:59;;;;;;;14.13;6.87;;;11.30;99.90;;;;;;5135237;27;20122;-70
2022/04/30 08:35:25;;;;;;;11.40;6.73;;;11.20;99.90;;;;;;5135214;27;20559;-71
2022/04/30 08:37:52;;;;;;;12.80;6.77;;;11.20;99.90;;;;;;5134952;27;20308;-71
2022/04/30 08:40:18;;;;;;;10.60;7.43;;;11.10;99.90;;;;;;5133989;27;20606;-70
2022/04/30 08:42:45;;;;;;;13.63;7.47;;;11.10;99.90;;;;;;5134745;27;20277;-71
2022/04/30 08:45:12;;;;;;;12.07;7.17;;;11.10;99.90;;;;;;5135041;27;20314;-70
2022/04/30 08:47:47;;;;;;;12.53;8.03;;;11.00;99.90;;;;;;5133613;27;20301;-71
2022/04/30 08:50:14;;;;;;;12.30;7.97;;;11.00;99.90;;;;;;5135106;27;20360;-70
2022/04/30 08:52:40;;;;;;;12.93;7.50;;;10.90;99.90;;;;;;5134870;27;20058;-71
2022/04/30 08:55:08;;;;;;;11.67;7.67;;;10.90;99.90;;;;;;5135015;27;20376;-70
2022/04/30 08:57:34;;;;;;;10.43;6.93;;;10.90;99.90;;;;;;5133439;27;20043;-71
2022/04/30 09:00:00;;;;;;;13.87;8.17;;;10.90;99.90;;;;;;5134826;27;20363;-70
2022/04/30 09:02:26;;;;;;;11.63;7.23;;;10.90;99.90;;;;;;5134830;27;20272;-70
2022/04/30 09:04:54;;;;;;;10.90;7.93;;;10.80;99.90;;;;;;5134285;27;20612;-70
2022/04/30 09:07:25;;;;;;;10.97;7.90;;;10.90;99.90;;;;;;5134576;27;20276;-70
2022/04/30 09:09:55;;;;;;;15.90;7.60;;;10.80;99.90;;;;;;5134267;27;20302;-70
2022/04/30 09:12:21;;;;;;;12.07;7.50;;;10.90;99.90;;;;;;5133241;27;20610;-71
2022/04/30 09:14:47;;;;;;;14.30;8.00;;;10.80;99.90;;;;;;5133828;27;20284;-70
2022/04/30 09:17:15;;;;;;;9.40;6.63;;;10.90;99.90;;;;;;5134639;27;20043;-71
2022/04/30 09:19:51;;;;;;;12.70;7.73;;;10.80;99.90;;;;;;5134185;27;20300;-71
2022/04/30 09:22:28;;;;;;;11.13;7.70;;;10.80;99.90;;;;;;5134210;27;20281;-70
2022/04/30 09:24:53;;;;;;;13.77;7.53;;;10.90;99.90;;;;;;5133940;27;20277;-71
2022/04/30 09:27:20;;;;;;;10.73;7.67;;;10.80;99.90;;;;;;5132966;27;20268;-70
2022/04/30 09:29:46;;;;;;;13.13;8.30;;;10.80;99.90;;;;;;5133681;27;20283;-70
2022/04/30 09:32:26;;;;;;;12.77;8.30;;;10.80;99.90;;;;;;5134047;27;20683;-70
2022/04/30 09:37:45;;;;;;;11.48;7.47;;;10.80;99.90;;;;;;5133916;27;20277;-70
2022/04/30 09:40:13;;;;;;;13.37;8.63;;;10.80;99.90;;;;;;5134134;27;20058;-69
2022/04/30 09:42:46;;;;;;;10.87;8.03;;;10.80;99.90;;;;;;5133586;27;20280;-70
2022/04/30 09:45:27;;;;;;;11.90;7.80;;;10.90;99.90;;;;;;5132933;27;20369;-70
2022/04/30 09:47:54;;;;;;;11.93;8.60;;;10.90;99.90;;;;;;5133508;27;20383;-71
2022/04/30 09:55:55;;;;;;;14.60;8.50;;;11.00;99.90;;;;;;5133709;27;20051;-70
2022/04/30 09:58:24;;;;;;;12.30;7.50;;;11.10;99.90;;;;;;5134285;27;20306;-70
2022/04/30 10:00:55;;;;;;;10.17;7.50;;;11.00;99.90;;;;;;5133564;27;20281;-71
2022/04/30 10:03:26;;;;;;;12.23;8.10;;;11.00;99.90;;;;;;5132687;28;20289;-71
2022/04/30 10:06:00;;;;;;;15.13;8.33;;;11.00;99.90;;;;;;5132395;28;20352;-69
2022/04/30 10:08:28;;;;;;;12.47;7.80;;;11.00;99.90;;;;;;5135311;27;20300;-70
2022/04/30 10:11:06;;;;;;;11.83;7.53;;;11.00;99.90;;;;;;5136585;27;20276;-70
2022/04/30 10:13:36;;;;;;;12.87;6.30;;;11.00;99.90;;;;;;5137809;27;20371;-70
2022/04/30 10:16:11;;;;;;;10.07;6.37;;;10.90;99.90;;;;;;5137742;27;20284;-70
2022/04/30 10:18:43;;;;;;;11.35;5.80;;;10.90;99.90;;;;;;5138062;27;20768;-70
2022/04/30 10:21:18;;;;;;;9.47;5.97;;;11.00;99.90;;;;;;5138209;27;20395;-70
2022/04/30 10:23:47;;;;;;;10.17;6.23;;;11.10;99.90;;;;;;5137547;27;20288;-72
2022/04/30 10:26:15;;;;;;;11.73;5.60;;;11.10;99.90;;;;;;5138115;27;20276;-71
2022/04/30 10:28:41;;;;;;;8.93;5.27;;;11.10;99.90;;;;;;5137442;27;20463;-70
2022/04/30 10:31:10;;;;;;;10.77;5.67;;;11.20;99.90;;;;;;5136425;27;20047;-67
2022/04/30 10:33:49;;;;;;;11.47;5.40;;;11.10;99.90;;;;;;5137708;27;20092;-70
2022/04/30 10:36:15;;;;;;;12.13;6.37;;;11.20;99.90;;;;;;5137914;27;20269;-70
2022/04/30 10:38:42;;;;;;;11.00;5.63;;;11.20;99.90;;;;;;5137506;27;20295;-70
2022/04/30 10:41:10;;;;;;;9.73;5.73;;;11.20;99.90;;;;;;5136291;27;20558;-69
2022/04/30 10:43:40;;;;;;;10.30;5.17;;;11.20;99.90;;;;;;5136261;27;20277;-70
2022/04/30 10:46:34;;;;;;;8.60;5.07;;;11.20;99.90;;;;;;5137208;27;20280;-69
2022/04/30 10:49:00;;;;;;;7.13;4.67;;;11.30;99.90;;;;;;5137079;27;20371;-69
2022/04/30 10:51:34;;;;;;;7.43;4.20;;;11.30;99.90;;;;;;5137054;27;20847;-70
2022/04/30 10:54:06;;;;;;;8.75;5.65;;;11.30;99.90;;;;;;5137029;27;20043;-69
2022/04/30 10:56:32;;;;;;;7.67;4.90;;;11.30;99.90;;;;;;5137061;27;20398;-69
2022/04/30 10:58:58;;;;;;;8.47;4.97;;;11.40;99.90;;;;;;5136845;27;20272;-70
2022/04/30 11:01:23;;;;;;;7.47;4.83;;;11.60;99.90;;;;;;5136832;27;20437;-70
2022/04/30 11:03:50;;;;;;;6.87;3.93;;;11.70;99.90;;;;;;5136823;27;20104;-71
2022/04/30 11:06:20;;;;;;;9.70;4.10;;;11.70;99.90;;;;;;5137061;27;20085;-70
2022/04/30 11:09:01;;;;;;;7.60;4.00;;;11.80;99.90;;;;;;5136618;27;20330;-72
2022/04/30 11:11:27;;;;;;;8.10;3.70;;;11.80;99.90;;;;;;5136097;27;20284;-70
2022/04/30 11:14:02;;;;;;;7.30;4.13;;;11.80;99.90;;;;;;5136576;27;20291;-70
2022/04/30 11:16:29;;;;;;;8.20;4.70;;;11.80;99.00;;;;;;5137131;27;20678;-69
2022/04/30 11:19:18;;;;;;;7.83;4.00;;;11.90;98.80;;;;;;5135534;27;20126;-69
2022/04/30 11:21:52;;;;;;;7.87;3.43;;;11.90;98.10;;;;;;5136141;27;20276;-70
2022/04/30 11:24:30;;;;;;;8.97;4.20;;;11.90;95.10;;;;;;5135726;27;20769;-70
2022/04/30 11:27:02;;;;;;;9.03;3.90;;;12.00;96.60;;;;;;5135183;27;20669;-70
2022/04/30 11:29:29;;;;;;;6.87;3.90;;;;;;;;;;5136808;27;20293;-71
2022/04/30 11:31:56;;;;;;;7.13;3.67;;;12.20;97.80;;;;;;5136164;27;20280;-70
2022/04/30 11:34:22;;;;;;;9.27;4.60;;;12.40;97.70;;;;;;5135284;27;20284;-70
2022/04/30 11:36:53;;;;;;;7.87;4.00;;;12.50;95.90;;;;;;5135363;27;20314;-71
2022/04/30 11:39:21;;;;;;;7.07;4.00;;;12.50;94.40;;;;;;5136237;27;20308;-70
2022/04/30 11:41:52;;;;;;;7.73;3.77;;;12.70;94.00;;;;;;5134680;27;20307;-69
2022/04/30 11:44:26;;;;;;;8.97;3.73;;;12.80;93.30;;;;;;5115830;28;20270;-71
2022/04/30 11:46:53;;;;;;;7.83;3.73;;;12.80;92.20;;;;;;5115427;28;20269;-70
2022/04/30 11:49:22;;;;;;;7.37;3.30;;;12.90;93.40;;;;;;5115508;28;20293;-71
2022/04/30 11:51:49;;;;;;;9.77;3.80;;;13.00;92.70;;;;;;5115715;28;20368;-70
2022/04/30 11:54:21;;;;;;;5.97;3.20;;;13.00;91.00;;;;;;5115224;28;20784;-70
2022/04/30 11:56:49;;;;;;;7.43;3.40;;;13.00;90.70;;;;;;5115590;28;20760;-70
2022/04/30 11:59:14;;;;;;;7.03;4.00;;;13.10;91.10;;;;;;5115130;28;20753;-69
2022/04/30 12:01:42;;;;;;;5.47;3.17;;;13.30;91.40;;;;;;5115364;28;20285;-69
2022/04/30 12:04:14;;;;;;;6.80;3.23;;;13.20;88.90;;;;;;5115121;28;20044;-70
2022/04/30 12:06:44;;;;;;;7.17;3.37;;;13.20;87.70;;;;;;5115378;28;20278;-70
2022/04/30 12:09:17;;;;;;;7.37;3.80;;;13.10;87.60;;;;;;5114971;28;20355;-70
2022/04/30 12:11:44;;;;;;;9.67;3.87;;;13.10;88.00;;;;;;5115396;28;20277;-70
2022/04/30 12:14:11;;;;;;;6.33;3.40;;;13.20;88.20;;;;;;5113824;28;20380;-69
2022/04/30 12:16:42;;;;;;;6.63;3.33;;;13.20;87.00;;;;;;5114986;28;20277;-69
2022/04/30 12:25:12;;;;;;;8.17;4.07;;;13.10;85.00;;;;;;5114323;28;20138;-69
2022/04/30 12:27:40;;;;;;;6.70;3.63;;;13.00;84.20;;;;;;5113639;28;20331;-74
2022/04/30 12:30:14;;;;;;;8.97;3.70;;;13.00;83.10;;;;;;5114228;28;20044;-69
2022/04/30 12:33:05;;;;;;;7.60;3.30;;;12.90;82.90;;;;;;5114359;28;20285;-70
2022/04/30 12:35:31;;;;;;;7.70;3.53;;;12.90;83.30;;;;;;5114287;28;20784;-70
2022/04/30 12:38:06;;;;;;;6.33;3.77;;;12.90;83.90;;;;;;5113954;28;20277;-71
2022/04/30 12:40:51;;;;;;;8.57;3.83;;;13.00;83.80;;;;;;5113373;28;20150;-69
2022/04/30 12:43:18;;;;;;;7.97;4.80;;;13.00;83.30;;;;;;5114076;28;20274;-70
2022/04/30 12:45:45;;;;;;;9.40;5.23;;;13.00;85.80;;;;;;5114307;28;20296;-69
2022/04/30 12:48:11;;;;;;;8.97;6.00;;;13.00;87.50;;;;;;5118470;27;20303;-68
2022/04/30 12:50:38;;;;;;;8.87;5.67;;;12.90;90.40;;;;;;5134209;27;20285;-69
2022/04/30 12:53:09;;;;;;;11.50;5.77;;;12.80;92.30;;;;;;5134139;27;20059;-70
2022/04/30 12:55:39;;;;;;;9.47;5.90;;;12.90;93.10;;;;;;5116250;27;20285;-70
2022/04/30 12:58:06;;;;;;;11.97;5.90;;;12.80;92.10;;;;;;5134123;27;20265;-70
2022/04/30 13:00:33;;;;;;;11.57;6.40;;;12.80;92.30;;;;;;5134916;27;20268;-70
2022/04/30 13:03:00;;;;;;;9.77;5.43;;;12.60;93.10;;;;;;5134512;27;20280;-69
2022/04/30 13:05:26;;;;;;;10.13;5.73;;;12.60;93.70;;;;;;5134926;27;20276;-69
2022/04/30 13:07:53;;;;;;;9.83;5.40;;;12.60;93.60;;;;;;5134491;27;20371;-69
2022/04/30 13:15:48;;;;;;;10.03;5.50;;;12.60;94.00;;;;;;5134411;27;20082;-69
2022/04/30 13:18:15;;;;;;;9.17;5.20;;;12.70;94.40;;;;;;5134141;27;20313;-70
2022/04/30 13:20:42;;;;;;;8.73;4.77;;;12.60;94.10;;;;;;5134393;27;20093;-69
2022/04/30 13:23:08;;;;;;;11.43;4.87;;;12.60;94.00;;;;;;5115826;27;20341;-69
2022/04/30 13:25:34;;;;;;;9.23;5.03;;;12.60;93.00;;;;;;5134163;27;20273;-70
2022/04/30 13:28:00;;;;;;;8.70;4.93;;;12.60;92.50;;;;;;5133817;27;20046;-73
2022/04/30 13:30:26;;;;;;;10.53;5.40;;;12.50;93.90;;;;;;5134141;27;20049;-70
2022/04/30 13:32:53;;;;;;;11.57;5.17;;;12.60;93.50;;;;;;5133884;27;20283;-70